createdAt,value
2018-07-11T00:12:16.114Z,88.71
2018-07-11T00:13:15.968Z,88.81
2018-07-11T00:15:57.830Z,89.48
2018-07-11T00:16:57.823Z,89.48
2018-07-11T00:17:57.679Z,89.00
2018-07-11T00:18:57.745Z,89.00
2018-07-11T00:19:57.529Z,89.00
2018-07-11T00:20:57.506Z,89.19
2018-07-11T00:21:57.368Z,89.29
2018-07-11T00:22:57.342Z,89.38
2018-07-11T00:23:57.221Z,89.38
2018-07-11T00:26:39.368Z,89.00
2018-07-11T00:27:39.377Z,89.09
2018-07-11T00:28:39.181Z,89.29
2018-07-11T00:29:39.141Z,89.29
2018-07-11T00:30:39.020Z,89.76
2018-07-11T00:31:39.115Z,89.38
2018-07-11T00:32:38.870Z,88.81
2018-07-11T00:33:38.860Z,88.90
2018-07-11T00:34:38.745Z,89.19
2018-07-11T00:35:38.684Z,89.48
2018-07-11T00:36:38.560Z,89.09
2018-07-11T00:39:20.865Z,89.29
2018-07-11T00:40:20.889Z,89.58
2018-07-11T00:41:20.677Z,89.86
2018-07-11T00:42:20.684Z,89.58
2018-07-11T00:43:20.588Z,89.76
2018-07-11T00:44:20.496Z,90.05
2018-07-11T00:45:20.387Z,90.15
2018-07-11T00:46:20.347Z,90.24
2018-07-11T00:47:20.208Z,90.44
2018-07-11T00:55:00.741Z,91.16
2018-07-11T00:56:00.574Z,91.73
2018-07-11T00:57:00.559Z,92.30
2018-07-11T00:58:00.422Z,91.63
2018-07-11T00:59:00.442Z,92.21
2018-07-11T01:00:00.255Z,92.21
2018-07-11T01:01:00.273Z,92.11
2018-07-11T01:02:00.098Z,92.21
2018-07-11T01:04:42.343Z,92.78
2018-07-11T01:05:42.419Z,92.78
2018-07-11T01:06:42.193Z,92.78
2018-07-11T01:07:42.160Z,92.49
2018-07-11T01:08:42.029Z,93.35
2018-07-11T01:09:42.070Z,92.88
2018-07-11T01:10:41.917Z,93.07
2018-07-11T01:11:41.917Z,93.02
2018-07-11T01:12:41.730Z,93.26
2018-07-11T01:13:41.691Z,93.55
2018-07-11T01:14:41.558Z,93.21
2018-07-11T01:15:41.605Z,93.50
2018-07-11T01:16:41.419Z,93.35
2018-07-11T01:17:41.404Z,93.50
2018-07-11T01:18:41.229Z,93.31
2018-07-11T01:19:41.209Z,93.55
2018-07-11T01:20:41.086Z,93.50
2018-07-11T01:21:42.092Z,94.17
2018-07-11T01:22:40.947Z,93.69
2018-07-11T01:23:40.940Z,94.26
2018-07-11T01:24:40.754Z,94.17
2018-07-11T01:25:40.752Z,94.07
2018-07-11T01:26:40.614Z,94.07
2018-07-11T01:27:40.592Z,94.46
2018-07-11T01:28:40.446Z,94.46
2018-07-11T01:29:40.459Z,94.65
2018-07-11T01:30:40.272Z,94.46
2018-07-11T01:31:40.267Z,94.84
2018-07-11T01:32:40.162Z,94.93
2018-07-11T01:33:40.089Z,95.32
2018-07-11T01:34:39.969Z,95.79
2018-07-11T01:35:39.989Z,95.70
2018-07-11T01:36:39.792Z,95.22
2018-07-11T01:37:39.831Z,96.08
2018-07-11T01:38:39.632Z,95.89
2018-07-11T01:39:39.604Z,96.75
2018-07-11T01:40:39.484Z,97.13
2018-07-11T01:41:39.457Z,96.84
2018-07-11T01:42:39.323Z,96.84
2018-07-11T01:43:40.391Z,96.75
2018-07-11T01:44:39.148Z,96.84
2018-07-11T01:45:39.130Z,96.84
2018-07-11T01:46:38.996Z,96.66
2018-07-11T01:47:39.044Z,96.84
2018-07-11T01:48:38.863Z,96.66
2018-07-11T01:49:38.853Z,97.52
2018-07-11T01:50:38.689Z,97.23
2018-07-11T01:51:38.666Z,97.99
2018-07-11T01:52:38.543Z,97.94
2018-07-11T01:53:38.480Z,98.09
2018-07-11T01:54:38.367Z,98.33
2018-07-11T01:55:38.393Z,98.61
2018-07-11T01:56:38.195Z,98.71
2018-07-11T01:57:38.237Z,98.71
2018-07-11T01:58:38.058Z,98.80
2018-07-11T01:59:38.003Z,98.99
2018-07-11T02:00:37.897Z,99.19
2018-07-11T02:01:37.907Z,99.38
2018-07-11T02:02:37.745Z,99.95
2018-07-11T02:03:38.790Z,99.95
2018-07-11T02:04:37.561Z,99.99
2018-07-11T02:05:37.529Z,99.99
2018-07-11T02:06:37.399Z,99.99
2018-07-11T02:09:19.388Z,99.99
2018-07-11T02:10:19.372Z,99.99
2018-07-11T02:11:19.206Z,99.99
2018-07-11T02:12:19.251Z,99.99
2018-07-11T02:13:19.051Z,99.99
2018-07-11T02:16:00.888Z,99.99
2018-07-11T02:17:00.846Z,99.99
2018-07-11T02:18:00.707Z,99.99
2018-07-11T02:19:00.691Z,99.99
2018-07-11T02:20:00.570Z,99.99
2018-07-11T02:21:00.563Z,99.99
2018-07-11T02:22:00.377Z,99.99
2018-07-11T02:24:42.397Z,99.99
2018-07-11T02:25:42.289Z,99.99
2018-07-11T02:26:42.203Z,99.99
2018-07-11T02:29:24.399Z,99.99
2018-07-11T02:30:24.415Z,99.99
2018-07-11T02:31:24.207Z,99.99
2018-07-11T02:32:24.187Z,99.99
2018-07-11T02:33:24.061Z,99.99
2018-07-11T02:36:05.894Z,99.99
2018-07-11T02:37:05.891Z,99.99
2018-07-11T02:38:05.715Z,99.99
2018-07-11T02:39:05.696Z,99.99
2018-07-11T02:40:05.572Z,99.99
2018-07-11T02:41:05.504Z,99.99
2018-07-11T02:42:05.393Z,99.99
2018-07-11T02:43:05.422Z,99.99
2018-07-11T02:44:05.228Z,99.99
2018-07-11T02:45:05.267Z,99.99
2018-07-11T02:46:05.078Z,99.99
2018-07-11T02:47:05.032Z,99.99
2018-07-11T02:48:04.911Z,99.99
2018-07-11T02:49:04.947Z,99.99
2018-07-11T02:50:04.756Z,99.99
2018-07-11T02:51:05.817Z,99.99
2018-07-11T02:52:04.599Z,99.99
2018-07-11T02:53:04.560Z,99.99
2018-07-11T02:54:04.430Z,99.99
2018-07-11T02:55:04.480Z,99.99
2018-07-11T02:56:04.303Z,99.99
2018-07-11T02:57:04.278Z,99.99
2018-07-11T02:58:04.115Z,99.99
2018-07-11T02:59:04.092Z,99.99
2018-07-11T03:00:03.950Z,99.99
2018-07-11T03:01:04.959Z,99.99
2018-07-11T03:02:03.796Z,99.99
2018-07-11T03:03:03.808Z,99.99
2018-07-11T03:04:03.625Z,99.99
2018-07-11T03:06:45.909Z,99.99
2018-07-11T03:07:45.929Z,99.99
2018-07-11T03:08:45.718Z,99.99
2018-07-11T03:09:45.745Z,99.99
2018-07-11T03:10:45.590Z,99.99
2018-07-11T03:11:45.570Z,99.99
2018-07-11T03:12:45.403Z,99.99
2018-07-11T03:13:45.345Z,99.99
2018-07-11T03:14:45.239Z,99.99
2018-07-11T03:17:27.398Z,99.99
2018-07-11T03:18:27.359Z,99.99
2018-07-11T03:19:27.225Z,99.99
2018-07-11T03:20:27.162Z,99.99
2018-07-11T03:21:27.079Z,99.99
2018-07-11T03:22:27.126Z,99.99
2018-07-11T03:23:26.892Z,99.99
2018-07-11T03:24:26.894Z,99.99
2018-07-11T03:25:26.749Z,99.99
2018-07-11T03:26:26.692Z,99.99
2018-07-11T03:27:26.615Z,99.99
2018-07-11T03:30:08.898Z,99.99
2018-07-11T03:31:08.916Z,99.99
2018-07-11T03:32:08.900Z,99.99
2018-07-11T03:33:08.732Z,99.99
2018-07-11T03:34:08.561Z,99.99
2018-07-11T03:35:08.530Z,99.99
2018-07-11T03:36:08.408Z,99.99
2018-07-11T03:37:08.435Z,99.99
2018-07-11T03:38:08.275Z,99.99
2018-07-11T03:39:08.242Z,99.99
2018-07-11T03:40:08.089Z,99.99
2018-07-11T03:41:08.049Z,99.99
2018-07-11T03:42:07.924Z,99.99
2018-07-11T03:43:07.887Z,99.99
2018-07-11T03:44:07.764Z,99.99
2018-07-11T03:45:07.774Z,99.99
2018-07-11T03:46:07.617Z,99.99
2018-07-11T03:48:49.907Z,99.99
2018-07-11T03:49:49.886Z,99.99
2018-07-11T03:50:49.724Z,99.99
2018-07-11T03:51:49.697Z,99.99
2018-07-11T03:52:49.563Z,99.99
2018-07-11T03:53:49.547Z,99.99
2018-07-11T03:54:49.424Z,99.99
2018-07-11T03:55:49.407Z,99.99
2018-07-11T03:56:49.254Z,99.99
2018-07-11T03:57:49.231Z,99.99
2018-07-11T03:58:49.120Z,99.99
2018-07-11T03:59:49.138Z,99.99
2018-07-11T04:00:48.926Z,99.99
2018-07-11T04:01:48.940Z,99.99
2018-07-11T04:02:48.766Z,99.99
2018-07-11T04:03:48.785Z,99.99
2018-07-11T04:04:48.684Z,99.99
2018-07-11T04:05:48.560Z,99.99
2018-07-11T04:06:48.452Z,99.99
2018-07-11T04:07:48.473Z,99.99
2018-07-11T04:08:48.306Z,99.99
2018-07-11T04:09:48.277Z,99.99
2018-07-11T04:10:48.159Z,99.99
2018-07-11T04:11:48.085Z,99.99
2018-07-11T04:12:47.989Z,99.99
2018-07-11T04:13:48.006Z,99.99
2018-07-11T04:14:47.828Z,99.99
2018-07-11T04:17:29.889Z,99.99
2018-07-11T04:20:11.928Z,99.99
2018-07-11T04:21:11.917Z,99.99
2018-07-11T04:22:11.742Z,99.99
2018-07-11T04:24:53.902Z,99.99
2018-07-11T04:25:53.978Z,99.99
2018-07-11T04:26:53.871Z,99.99
2018-07-11T04:29:35.909Z,99.99
2018-07-11T04:30:36.893Z,99.99
2018-07-11T04:31:35.743Z,99.99
2018-07-11T04:32:35.728Z,99.99
2018-07-11T04:33:35.592Z,99.99
2018-07-11T04:34:35.612Z,99.99
2018-07-11T04:35:35.451Z,99.99
2018-07-11T04:36:35.454Z,99.99
2018-07-11T04:37:35.253Z,99.99
2018-07-11T04:38:35.222Z,99.99
2018-07-11T04:39:35.089Z,99.99
2018-07-11T04:40:35.031Z,99.99
2018-07-11T04:41:34.957Z,99.99
2018-07-11T04:44:16.898Z,99.99
2018-07-11T04:45:16.861Z,99.99
2018-07-11T04:46:16.771Z,99.99
2018-07-11T04:47:16.700Z,99.99
2018-07-11T04:48:16.582Z,99.99
2018-07-11T04:49:16.507Z,99.99
2018-07-11T04:50:16.424Z,99.99
2018-07-11T04:52:58.420Z,99.99
2018-07-11T04:53:58.337Z,99.99
2018-07-11T04:54:58.245Z,99.99
2018-07-11T04:57:40.428Z,99.99
2018-07-11T04:58:40.327Z,99.99
2018-07-11T04:59:40.237Z,99.99
2018-07-11T05:02:22.420Z,99.99
2018-07-11T05:03:22.324Z,99.99
2018-07-11T05:04:22.241Z,99.99
2018-07-11T05:05:22.171Z,99.99
2018-07-11T05:21:20.360Z,99.99
2018-07-11T05:22:20.093Z,99.99
2018-07-11T05:23:20.037Z,99.99
2018-07-11T05:24:19.942Z,99.99
2018-07-11T05:25:19.882Z,99.99
2018-07-11T05:26:19.773Z,99.99
2018-07-11T05:27:19.705Z,99.99
2018-07-11T05:28:19.655Z,99.99
2018-07-11T05:29:19.544Z,99.99
2018-07-11T05:30:19.470Z,99.99
2018-07-11T05:31:19.403Z,99.99
2018-07-11T05:32:19.299Z,99.99
2018-07-11T05:33:19.224Z,99.99
2018-07-11T05:34:19.156Z,99.99
2018-07-11T05:35:19.086Z,99.99
2018-07-11T05:36:19.054Z,99.99
2018-07-11T05:37:18.924Z,99.99
2018-07-11T05:38:18.827Z,99.99
2018-07-11T05:39:19.762Z,99.99
2018-07-11T05:40:18.664Z,99.99
2018-07-11T05:41:18.601Z,99.99
2018-07-11T05:42:18.506Z,99.99
2018-07-11T05:43:18.430Z,99.99
2018-07-11T05:44:18.375Z,99.99
2018-07-11T05:45:18.266Z,99.99
2018-07-11T05:46:18.187Z,99.99
2018-07-11T05:47:18.113Z,99.99
2018-07-11T05:48:18.113Z,99.99
2018-07-11T05:49:17.997Z,99.99
2018-07-11T05:50:17.881Z,99.05
2018-07-11T05:51:17.798Z,99.99
2018-07-11T05:52:17.720Z,99.15
2018-07-11T05:53:17.633Z,99.72
2018-07-11T05:54:17.552Z,99.99
2018-07-11T05:55:17.520Z,98.86
2018-07-11T05:56:17.397Z,98.76
2018-07-11T05:57:17.328Z,98.47
2018-07-11T05:58:17.230Z,99.43
2018-07-11T06:00:59.435Z,99.34
2018-07-11T06:03:41.422Z,99.72
2018-07-11T06:04:41.342Z,99.63
2018-07-11T06:05:41.291Z,98.28
2018-07-11T06:08:23.424Z,97.61
2018-07-11T06:09:23.365Z,98.57
2018-07-11T06:10:23.281Z,98.57
2018-07-11T06:11:23.282Z,98.47
2018-07-11T06:12:23.124Z,98.00
2018-07-11T06:13:23.089Z,98.00
2018-07-11T06:14:22.965Z,98.43
2018-07-11T06:15:22.863Z,98.43
2018-07-11T06:16:22.817Z,98.81
2018-07-11T06:17:22.753Z,98.33
2018-07-11T06:18:22.629Z,96.89
2018-07-11T06:19:22.577Z,97.18
2018-07-11T06:20:22.485Z,95.94
2018-07-11T06:21:22.390Z,96.13
2018-07-11T06:22:22.322Z,96.75
2018-07-11T06:23:22.233Z,97.23
2018-07-11T06:24:22.164Z,94.93
2018-07-11T06:25:22.174Z,95.07
2018-07-11T06:26:21.997Z,94.98
2018-07-11T06:27:21.935Z,96.13
2018-07-11T06:28:21.844Z,95.94
2018-07-11T06:29:21.801Z,95.41
2018-07-11T06:30:21.693Z,94.84
2018-07-11T06:31:21.635Z,93.97
2018-07-11T06:32:21.517Z,93.82
2018-07-11T06:36:45.268Z,78.40
2018-07-11T06:37:45.223Z,76.90
2018-07-11T06:38:45.086Z,75.93
2018-07-11T06:39:44.991Z,75.74
2018-07-11T06:40:44.921Z,75.30
2018-07-11T06:41:44.855Z,73.25
2018-07-11T06:42:44.764Z,71.32
2018-07-11T06:43:44.678Z,70.64
2018-07-11T06:46:26.960Z,71.51
2018-07-11T06:47:27.897Z,70.20
2018-07-11T06:48:26.786Z,68.88
2018-07-11T06:49:26.705Z,67.30
2018-07-11T06:50:26.619Z,65.79
2018-07-11T06:51:26.557Z,64.92
2018-07-11T06:52:26.507Z,65.50
2018-07-11T06:53:26.406Z,65.66
2018-07-11T06:54:26.335Z,65.66
2018-07-11T06:55:26.249Z,66.78
2018-07-11T06:56:26.180Z,68.27
2018-07-11T06:57:26.146Z,65.75
2018-07-11T06:58:26.018Z,65.47
2018-07-11T06:59:25.975Z,64.89
2018-07-11T07:00:25.883Z,65.01
2018-07-11T07:01:25.808Z,65.82
2018-07-11T07:02:25.798Z,66.66
2018-07-11T07:05:08.084Z,68.46
2018-07-11T07:06:07.888Z,67.17
2018-07-11T07:07:07.790Z,66.98
2018-07-11T07:08:07.724Z,67.27
2018-07-11T07:09:07.669Z,66.72
2018-07-11T07:10:07.627Z,64.34
2018-07-11T07:11:07.511Z,65.34
2018-07-11T07:12:07.424Z,67.14
2018-07-11T07:13:07.377Z,66.94
2018-07-11T07:14:08.318Z,66.94
2018-07-11T07:15:07.206Z,67.75
2018-07-11T07:16:07.134Z,66.56
2018-07-11T07:17:07.052Z,68.29
2018-07-11T07:18:07.020Z,70.06
2018-07-11T07:19:06.902Z,68.91
2018-07-11T07:20:07.859Z,68.17
2018-07-11T07:21:06.766Z,67.72
2018-07-11T07:23:48.990Z,65.17
2018-07-11T07:24:48.895Z,64.98
2018-07-11T07:25:48.800Z,65.47
2018-07-11T07:26:48.738Z,66.59
2018-07-11T07:27:48.655Z,66.50
2018-07-11T07:28:48.630Z,64.47
2018-07-11T07:29:48.517Z,64.37
2018-07-11T07:30:48.499Z,64.79
2018-07-11T07:31:48.365Z,65.27
2018-07-11T07:34:30.479Z,62.85
2018-07-11T07:35:30.404Z,62.79
2018-07-11T07:36:30.308Z,60.85
2018-07-11T07:37:30.263Z,61.30
2018-07-11T07:38:30.195Z,62.40
2018-07-11T07:39:30.118Z,61.88
2018-07-11T07:40:30.052Z,61.36
2018-07-11T07:41:29.964Z,59.74
2018-07-11T07:42:29.883Z,59.91
2018-07-11T07:43:29.827Z,60.30
2018-07-11T07:44:29.777Z,60.68
2018-07-11T07:45:29.662Z,59.91
2018-07-11T07:46:29.592Z,60.30
2018-07-11T07:47:29.540Z,60.88
2018-07-11T07:48:29.480Z,62.53
2018-07-11T07:49:29.413Z,62.04
2018-07-11T07:50:29.308Z,62.30
2018-07-11T07:51:29.253Z,60.07
2018-07-11T07:52:29.175Z,60.33
2018-07-11T07:53:29.103Z,61.43
2018-07-11T07:54:29.063Z,64.27
2018-07-11T07:55:28.960Z,65.43
2018-07-11T07:56:28.900Z,64.56
2018-07-11T07:57:28.814Z,63.07
2018-07-11T07:58:28.743Z,60.58
2018-07-11T07:59:28.678Z,58.97
2018-07-11T08:00:28.628Z,58.22
2018-07-11T08:03:10.472Z,61.24
2018-07-11T08:04:10.438Z,61.19
2018-07-11T08:05:10.369Z,59.09
2018-07-11T08:06:10.285Z,57.98
2018-07-11T08:07:10.190Z,56.65
2018-07-11T08:09:52.475Z,55.27
2018-07-11T08:10:52.430Z,54.94
2018-07-11T08:11:52.323Z,56.81
2018-07-11T08:12:52.264Z,59.23
2018-07-11T08:13:52.182Z,58.97
2018-07-11T08:16:34.502Z,59.69
2018-07-11T08:17:34.403Z,59.55
2018-07-11T08:18:34.329Z,58.70
2018-07-11T08:19:34.272Z,59.49
2018-07-11T08:20:34.270Z,58.62
2018-07-11T08:21:34.218Z,61.02
2018-07-11T08:22:34.092Z,60.88
2018-07-11T08:25:15.968Z,59.52
2018-07-11T08:26:15.924Z,57.15
2018-07-11T08:27:15.845Z,56.60
2018-07-11T08:28:15.785Z,54.97
2018-07-11T08:29:15.696Z,53.74
2018-07-11T08:31:58.001Z,56.41
2018-07-11T08:32:57.956Z,59.05
2018-07-11T08:33:57.843Z,61.11
2018-07-11T08:34:57.802Z,62.40
2018-07-11T08:35:57.711Z,64.50
2018-07-11T08:36:57.674Z,65.85
2018-07-11T08:37:57.568Z,66.30
2018-07-11T08:38:57.495Z,65.34
2018-07-11T08:39:57.417Z,62.50
2018-07-11T08:42:39.525Z,57.17
2018-07-11T08:43:39.429Z,57.87
2018-07-11T08:44:39.357Z,57.22
2018-07-11T08:45:39.291Z,55.43
2018-07-11T08:46:39.197Z,55.14
2018-07-11T08:47:39.210Z,55.57
2018-07-11T08:48:39.053Z,58.92
2018-07-11T08:49:38.989Z,60.98
2018-07-11T08:50:38.923Z,58.65
2018-07-11T08:51:38.857Z,57.07
2018-07-11T08:52:38.803Z,57.17
2018-07-11T08:53:38.706Z,56.13
2018-07-11T08:54:38.637Z,57.23
2018-07-11T08:55:38.569Z,57.07
2018-07-11T08:56:38.499Z,56.97
2018-07-11T08:57:38.421Z,56.20
2018-07-11T08:58:38.381Z,56.59
2018-07-11T08:59:38.297Z,56.90
2018-07-11T09:00:38.213Z,55.60
2018-07-11T09:01:38.198Z,55.77
2018-07-11T09:02:38.109Z,56.75
2018-07-11T09:03:39.031Z,58.56
2018-07-11T09:04:37.935Z,57.07
2018-07-11T09:05:37.868Z,58.24
2018-07-11T09:06:37.815Z,58.65
2018-07-11T09:07:37.723Z,58.72
2018-07-11T09:08:37.668Z,59.79
2018-07-11T09:09:38.619Z,59.47
2018-07-11T09:10:37.548Z,59.79
2018-07-11T09:11:37.448Z,59.98
2018-07-11T09:12:37.383Z,60.41
2018-07-11T09:13:37.338Z,60.99
2018-07-11T09:14:37.259Z,61.15
2018-07-11T09:15:37.170Z,61.83
2018-07-11T09:16:37.098Z,62.57
2018-07-11T09:17:37.026Z,62.54
2018-07-11T09:18:36.938Z,62.44
2018-07-11T09:19:36.905Z,62.02
2018-07-11T09:20:36.835Z,60.05
2018-07-11T09:23:18.988Z,57.50
2018-07-11T09:24:18.938Z,56.61
2018-07-11T09:25:18.850Z,54.24
2018-07-11T09:26:18.801Z,52.35
2018-07-11T09:27:18.720Z,50.60
2018-07-11T09:30:01.029Z,48.71
2018-07-11T09:32:43.007Z,46.77
2018-07-11T09:33:42.930Z,46.34
2018-07-11T09:34:42.962Z,45.64
2018-07-11T09:35:42.794Z,47.11
2018-07-11T09:36:42.728Z,48.47
2018-07-11T09:37:42.706Z,47.86
2018-07-11T09:38:42.578Z,48.13
2018-07-11T09:39:42.512Z,47.54
2018-07-11T09:40:42.472Z,46.81
2018-07-11T09:41:43.427Z,46.96
2018-07-11T09:42:42.314Z,47.42
2018-07-11T09:43:42.257Z,47.78
2018-07-11T09:44:42.175Z,47.42
2018-07-11T09:45:42.130Z,48.10
2018-07-11T09:46:42.086Z,50.89
2018-07-11T09:47:41.981Z,50.62
2018-07-11T09:48:41.919Z,49.80
2018-07-11T09:49:41.864Z,49.87
2018-07-11T09:50:41.791Z,50.21
2018-07-11T09:53:24.002Z,52.00
2018-07-11T09:56:06.073Z,52.95
2018-07-11T09:57:05.945Z,52.92
2018-07-11T09:58:06.019Z,53.79
2018-07-11T10:00:48.007Z,54.15
2018-07-11T10:01:47.952Z,54.15
2018-07-11T10:02:47.889Z,54.22
2018-07-11T10:03:47.824Z,54.41
2018-07-11T10:04:47.749Z,54.63
2018-07-11T10:05:47.693Z,54.03
2018-07-11T10:06:47.586Z,53.67
2018-07-11T10:07:48.539Z,53.11
2018-07-11T10:08:47.444Z,51.76
2018-07-11T10:09:47.375Z,52.51
2018-07-11T10:10:47.298Z,52.17
2018-07-11T10:11:47.234Z,51.90
2018-07-11T10:12:47.158Z,50.52
2018-07-11T10:13:48.106Z,50.60
2018-07-11T10:14:47.006Z,50.74
2018-07-11T10:15:47.032Z,49.15
2018-07-11T10:16:46.865Z,48.44
2018-07-11T10:17:46.813Z,46.55
2018-07-11T10:18:46.780Z,46.31
2018-07-11T10:19:46.673Z,48.03
2018-07-11T10:20:46.586Z,47.45
2018-07-11T10:23:28.550Z,50.94
2018-07-11T10:24:28.451Z,52.75
2018-07-11T10:25:28.403Z,53.96
2018-07-11T10:28:10.558Z,56.15
2018-07-11T10:29:10.458Z,56.35
2018-07-11T10:30:10.471Z,56.93
2018-07-11T10:32:52.519Z,53.61
2018-07-11T10:33:52.457Z,51.89
2018-07-11T10:34:52.396Z,51.86
2018-07-11T10:35:52.312Z,50.70
2018-07-11T10:36:52.237Z,50.82
2018-07-11T10:37:52.180Z,50.43
2018-07-11T10:38:52.106Z,50.19
2018-07-11T10:39:52.024Z,50.07
2018-07-11T10:40:51.947Z,48.51
2018-07-11T10:41:51.884Z,47.20
2018-07-11T10:42:51.807Z,45.25
2018-07-11T10:43:51.769Z,44.09
2018-07-11T10:44:51.678Z,45.11
2018-07-11T10:45:51.620Z,45.35
2018-07-11T10:46:51.538Z,46.25
2018-07-11T10:47:51.474Z,44.96
2018-07-11T10:48:51.489Z,45.75
2018-07-11T10:49:51.337Z,47.45
2018-07-11T10:50:51.247Z,47.69
2018-07-11T10:51:51.214Z,48.44
2018-07-11T10:52:51.109Z,48.88
2018-07-11T10:55:33.052Z,47.30
2018-07-11T10:56:32.975Z,44.92
2018-07-11T10:57:32.939Z,43.29
2018-07-11T11:00:35.966Z,40.41
2018-07-11T11:02:57.065Z,42.72
2018-07-11T11:03:56.973Z,44.02
2018-07-11T11:04:56.966Z,45.14
2018-07-11T11:05:56.841Z,46.07
2018-07-11T11:06:56.771Z,47.60
2018-07-11T11:07:56.759Z,47.38
2018-07-11T11:08:56.659Z,47.74
2018-07-11T11:09:56.569Z,48.15
2018-07-11T11:10:56.532Z,46.86
2018-07-11T11:13:38.532Z,43.36
2018-07-11T11:14:38.524Z,42.85
2018-07-11T11:15:38.408Z,43.24
2018-07-11T11:16:38.387Z,42.66
2018-07-11T11:17:38.270Z,42.35
2018-07-11T11:18:38.218Z,43.93
2018-07-11T11:19:38.122Z,44.96
2018-07-11T11:20:38.067Z,46.12
2018-07-11T11:21:38.019Z,46.41
2018-07-11T11:24:20.063Z,45.70
2018-07-11T11:25:19.970Z,44.27
2018-07-11T11:26:19.920Z,43.95
2018-07-11T11:27:19.866Z,43.84
2018-07-11T11:28:19.772Z,45.20
2018-07-11T11:31:02.054Z,46.77
2018-07-11T11:32:02.127Z,47.36
2018-07-11T11:33:01.932Z,48.11
2018-07-11T11:34:01.851Z,48.27
2018-07-11T11:35:01.800Z,48.74
2018-07-11T11:37:44.073Z,49.41
2018-07-11T11:38:43.990Z,49.70
2018-07-11T11:39:43.902Z,50.35
2018-07-11T11:40:43.869Z,51.03
2018-07-11T11:41:43.873Z,51.81
2018-07-11T11:42:43.761Z,52.48
2018-07-11T11:43:43.640Z,52.87
2018-07-11T11:44:43.576Z,53.38
2018-07-11T11:45:43.482Z,53.16
2018-07-11T11:48:25.557Z,56.93
2018-07-11T11:49:25.511Z,56.83
2018-07-11T11:50:25.410Z,57.05
2018-07-11T11:53:07.565Z,55.98
2018-07-11T11:54:07.490Z,54.45
2018-07-11T11:55:07.405Z,53.92
2018-07-11T11:56:07.368Z,54.16
2018-07-11T11:57:07.268Z,54.84
2018-07-11T11:58:08.230Z,54.50
2018-07-11T11:59:07.115Z,55.35
2018-07-11T12:00:07.047Z,55.47
2018-07-11T12:01:06.968Z,53.37
2018-07-11T12:02:06.896Z,52.59
2018-07-11T12:03:06.832Z,52.81
2018-07-11T12:04:06.793Z,51.04
2018-07-11T12:05:06.693Z,52.59
2018-07-11T12:06:06.611Z,53.12
2018-07-11T12:07:06.589Z,53.31
2018-07-11T12:08:06.484Z,54.38
2018-07-11T12:09:06.441Z,54.31
2018-07-11T12:10:07.344Z,53.59
2018-07-11T12:11:06.249Z,52.13
2018-07-11T12:12:06.188Z,53.24
2018-07-11T12:13:06.106Z,54.44
2018-07-11T12:15:48.095Z,54.96
2018-07-11T12:16:48.011Z,54.90
2018-07-11T12:17:47.966Z,54.90
2018-07-11T12:18:47.874Z,54.70
2018-07-11T12:19:47.793Z,55.06
2018-07-11T12:20:47.724Z,55.35
2018-07-11T12:21:47.638Z,56.10
2018-07-11T12:24:29.567Z,56.41
2018-07-11T12:25:30.549Z,55.81
2018-07-11T12:26:29.439Z,56.32
2018-07-11T12:27:29.366Z,55.35
2018-07-11T12:28:29.301Z,54.74
2018-07-11T12:31:11.587Z,55.47
2018-07-11T12:33:53.590Z,56.20
2018-07-11T12:34:53.507Z,56.49
2018-07-11T12:35:53.431Z,56.87
2018-07-11T12:36:53.369Z,57.07
2018-07-11T12:37:53.293Z,56.56
2018-07-11T12:40:35.606Z,56.68
2018-07-11T12:41:35.503Z,56.49
2018-07-11T12:42:35.436Z,56.97
2018-07-11T12:43:35.423Z,57.07
2018-07-11T12:44:35.295Z,56.23
2018-07-11T12:45:35.233Z,55.71
2018-07-11T12:46:35.169Z,55.71
2018-07-11T12:47:35.084Z,55.22
2018-07-11T12:48:34.987Z,55.71
2018-07-11T12:49:34.924Z,55.62
2018-07-11T12:50:34.848Z,56.14
2018-07-11T12:51:34.797Z,57.01
2018-07-11T12:52:34.695Z,57.20
2018-07-11T12:55:16.602Z,58.65
2018-07-11T12:56:16.548Z,56.92
2018-07-11T12:57:16.473Z,56.52
2018-07-11T12:59:58.582Z,55.76
2018-07-11T13:00:58.541Z,56.75
2018-07-11T13:01:58.449Z,56.43
2018-07-11T13:02:58.365Z,57.11
2018-07-11T13:03:58.289Z,57.11
2018-07-11T13:04:58.227Z,56.98
2018-07-11T13:05:58.139Z,56.70
2018-07-11T13:06:59.148Z,57.08
2018-07-11T13:07:58.005Z,57.11
2018-07-11T13:08:57.952Z,57.50
2018-07-11T13:09:57.849Z,56.43
2018-07-11T13:10:57.848Z,57.20
2018-07-11T13:11:57.725Z,56.65
2018-07-11T13:12:57.644Z,56.10
2018-07-11T13:13:57.559Z,55.52
2018-07-11T13:14:57.479Z,55.62
2018-07-11T13:15:57.448Z,55.90
2018-07-11T13:16:57.354Z,55.81
2018-07-11T13:17:57.255Z,57.04
2018-07-11T13:18:57.182Z,57.14
2018-07-11T13:19:57.112Z,57.50
2018-07-11T13:20:57.044Z,58.56
2018-07-11T13:21:56.974Z,58.37
2018-07-11T13:22:56.984Z,58.56
2018-07-11T13:23:56.800Z,58.85
2018-07-11T13:26:39.092Z,59.21
2018-07-11T13:27:39.074Z,59.21
2018-07-11T13:28:38.960Z,59.79
2018-07-11T13:29:38.887Z,60.08
2018-07-11T13:30:38.822Z,59.86
2018-07-11T13:33:21.135Z,61.02
2018-07-11T13:36:03.105Z,60.82
2018-07-11T13:37:03.031Z,61.40
2018-07-11T13:38:02.975Z,61.11
2018-07-11T13:39:02.878Z,61.40
2018-07-11T13:40:02.801Z,61.66
2018-07-11T13:41:02.740Z,61.86
2018-07-11T13:42:02.656Z,62.15
2018-07-11T13:43:02.592Z,62.34
2018-07-11T13:44:02.617Z,62.63
2018-07-11T13:45:02.428Z,63.21
2018-07-11T13:46:02.381Z,62.73
2018-07-11T13:47:02.278Z,62.73
2018-07-11T13:48:02.201Z,62.40
2018-07-11T13:49:02.162Z,63.47
2018-07-11T13:50:02.050Z,63.37
2018-07-11T13:52:44.103Z,64.53
2018-07-11T13:53:44.082Z,64.92
2018-07-11T13:54:43.969Z,65.30
2018-07-11T13:55:43.890Z,65.30
2018-07-11T13:56:43.793Z,65.78
2018-07-11T13:57:43.735Z,65.98
2018-07-11T13:58:43.838Z,66.27
2018-07-11T14:01:25.608Z,66.94
2018-07-11T14:02:25.529Z,66.94
2018-07-11T14:03:25.447Z,66.75
2018-07-11T14:04:25.463Z,66.66
2018-07-11T14:05:25.315Z,65.98
2018-07-11T14:06:25.241Z,66.46
2018-07-11T14:07:25.170Z,65.78
2018-07-11T14:10:07.135Z,66.46
2018-07-11T14:11:07.056Z,66.66
2018-07-11T14:12:06.975Z,66.85
2018-07-11T14:13:06.894Z,66.75
2018-07-11T14:14:06.848Z,66.85
2018-07-11T14:15:06.760Z,66.91
2018-07-11T14:16:06.670Z,67.30
2018-07-11T14:18:48.620Z,68.75
2018-07-11T14:19:49.592Z,71.70
2018-07-11T14:20:48.451Z,73.25
2018-07-11T14:21:48.400Z,73.25
2018-07-11T14:22:48.318Z,74.08
2018-07-11T14:23:48.242Z,73.99
2018-07-11T14:24:48.193Z,74.08
2018-07-11T14:27:30.105Z,75.24
2018-07-11T14:30:12.131Z,77.07
2018-07-11T14:31:12.056Z,77.81
2018-07-11T14:32:11.957Z,78.67
2018-07-11T14:33:11.888Z,79.35
2018-07-11T14:34:11.804Z,80.46
2018-07-11T14:35:12.754Z,82.01
2018-07-11T14:36:11.673Z,82.87
2018-07-11T14:37:11.587Z,84.42
2018-07-11T14:38:11.507Z,87.65
2018-07-11T14:39:11.447Z,90.11
2018-07-11T14:40:11.352Z,92.80
2018-07-11T14:41:11.293Z,93.96
2018-07-11T14:42:11.188Z,94.92
2018-07-11T14:43:11.122Z,96.17
2018-07-11T14:44:11.040Z,97.52
2018-07-11T14:45:10.968Z,98.49
2018-07-11T14:46:10.901Z,99.21
2018-07-11T14:47:10.798Z,99.98
2018-07-11T14:48:10.723Z,99.99
2018-07-11T14:49:10.667Z,99.99
2018-07-11T14:50:10.588Z,99.99
2018-07-11T14:51:10.527Z,99.99
2018-07-11T14:52:10.436Z,99.99
2018-07-11T14:53:10.370Z,99.99
2018-07-11T14:54:10.277Z,99.99
2018-07-11T14:55:10.187Z,99.99
2018-07-11T14:56:10.131Z,99.99
2018-07-11T14:57:10.096Z,99.99
2018-07-11T14:58:10.006Z,99.99
2018-07-11T14:59:09.874Z,99.99
2018-07-11T15:00:09.784Z,99.99
2018-07-11T15:01:09.714Z,99.99
2018-07-11T15:02:09.658Z,99.99
2018-07-11T15:03:09.571Z,99.99
2018-07-11T15:04:09.518Z,99.99
2018-07-11T15:05:09.408Z,99.99
2018-07-11T15:06:09.331Z,99.99
2018-07-11T15:07:09.281Z,99.99
2018-07-11T15:08:09.209Z,99.99
2018-07-11T15:09:09.323Z,99.99
2018-07-11T15:10:09.021Z,99.99
2018-07-11T15:11:08.937Z,99.99
2018-07-11T15:12:08.884Z,99.99
2018-07-11T15:13:08.785Z,99.99
2018-07-11T15:14:08.746Z,99.99
2018-07-11T15:15:08.702Z,99.99
2018-07-11T15:16:08.547Z,99.99
2018-07-11T15:17:08.509Z,99.99
2018-07-11T15:18:08.382Z,99.99
2018-07-11T15:19:08.315Z,99.99
2018-07-11T15:20:08.225Z,99.99
2018-07-11T15:21:08.157Z,99.99
2018-07-11T15:22:08.101Z,99.99
2018-07-11T15:23:08.036Z,99.45
2018-07-11T15:24:07.930Z,99.99